createdAt,value
2018-11-23T00:01:03.296Z,101601.27
2018-11-23T00:02:07.487Z,101605.21
2018-11-23T00:03:11.534Z,101602.58
2018-11-23T00:04:15.534Z,101600.31
2018-11-23T00:05:19.814Z,101600.77
2018-11-23T00:06:23.907Z,101599.95
2018-11-23T00:07:28.716Z,101601.27
2018-11-23T00:08:32.742Z,101604.35
2018-11-23T00:09:36.943Z,101598.23
2018-11-23T00:10:41.013Z,101603.09
2018-11-23T00:11:45.032Z,101600.05
2018-11-23T00:12:49.305Z,101602.23
2018-11-23T00:13:53.295Z,101604.00
2018-11-23T00:14:57.313Z,101601.38
2018-11-23T00:16:01.363Z,101604.50
2018-11-23T00:17:05.821Z,101606.27
2018-11-23T00:18:09.945Z,101611.12
2018-11-23T00:19:14.173Z,101604.14
2018-11-23T00:20:19.538Z,101605.86
2018-11-23T00:21:23.550Z,101613.36
2018-11-23T00:22:27.610Z,101608.09
2018-11-23T00:23:31.752Z,101604.14
2018-11-23T00:24:35.853Z,101612.44
2018-11-23T00:25:39.959Z,101613.36
2018-11-23T00:26:43.966Z,101618.16
2018-11-23T00:27:48.422Z,101618.16
2018-11-23T00:28:52.773Z,101625.59
2018-11-23T00:29:56.837Z,101622.97
2018-11-23T00:31:00.796Z,101630.95
2018-11-23T00:32:04.897Z,101625.73
2018-11-23T00:33:08.907Z,101625.73
2018-11-23T00:34:13.006Z,101621.84
2018-11-23T00:35:18.787Z,101621.02
2018-11-23T00:36:22.833Z,101624.02
2018-11-23T00:37:27.057Z,101620.53
2018-11-23T00:38:31.317Z,101627.59
2018-11-23T00:39:35.412Z,101628.97
2018-11-23T00:40:39.473Z,101626.79
2018-11-23T00:41:43.495Z,101625.11
2018-11-23T00:42:47.561Z,101624.70
2018-11-23T00:43:51.661Z,101633.45
2018-11-23T00:44:55.662Z,101635.77
2018-11-23T00:45:59.745Z,101632.73
2018-11-23T00:47:04.717Z,101637.13
2018-11-23T00:48:08.724Z,101631.88
2018-11-23T00:49:12.746Z,101632.28
2018-11-23T00:50:18.024Z,101637.08
2018-11-23T00:51:22.054Z,101631.82
2018-11-23T00:52:26.086Z,101636.14
2018-11-23T00:53:30.238Z,101630.02
2018-11-23T00:54:34.277Z,101632.65
2018-11-23T00:55:38.386Z,101632.19
2018-11-23T00:56:42.519Z,101632.28
2018-11-23T00:57:46.813Z,101630.50
2018-11-23T00:58:50.864Z,101633.13
2018-11-23T00:59:54.953Z,101632.28
2018-11-23T01:00:59.269Z,101627.47
2018-11-23T01:02:06.388Z,101632.73
2018-11-23T01:03:10.425Z,101634.96
2018-11-23T01:04:14.529Z,101625.34
2018-11-23T01:05:19.040Z,101628.47
2018-11-23T01:06:23.244Z,101624.98
2018-11-23T01:07:27.272Z,101621.95
2018-11-23T01:08:31.282Z,101625.89
2018-11-23T01:09:35.320Z,101631.61
2018-11-23T01:10:39.339Z,101625.98
2018-11-23T01:11:44.227Z,101625.98
2018-11-23T01:12:49.405Z,101629.52
2018-11-23T01:13:53.506Z,101629.57
2018-11-23T01:14:57.551Z,101625.63
2018-11-23T01:16:01.620Z,101627.80
2018-11-23T01:17:05.754Z,101629.57
2018-11-23T01:18:09.780Z,101626.94
2018-11-23T01:19:13.804Z,101626.08
2018-11-23T01:20:19.097Z,101625.17
2018-11-23T01:21:23.184Z,101626.03
2018-11-23T01:22:27.247Z,101633.92
2018-11-23T01:23:31.351Z,101630.03
2018-11-23T01:24:35.417Z,101633.14
2018-11-23T01:25:39.469Z,101632.34
2018-11-23T01:26:43.625Z,101627.08
2018-11-23T01:27:48.834Z,101627.94
2018-11-23T01:28:53.133Z,101631.02
2018-11-23T01:29:57.193Z,101635.83
2018-11-23T01:31:01.405Z,101635.38
2018-11-23T01:32:05.547Z,101630.11
2018-11-23T01:33:09.665Z,101628.80
2018-11-23T01:34:13.710Z,101638.41
2018-11-23T01:35:17.730Z,101632.29
2018-11-23T01:36:21.910Z,101630.11
2018-11-23T01:37:25.893Z,101633.60
2018-11-23T01:38:29.933Z,101630.52
2018-11-23T01:39:33.941Z,101627.48
2018-11-23T01:40:38.789Z,101634.11
2018-11-23T01:41:42.055Z,101625.77
2018-11-23T01:42:46.788Z,101626.27
2018-11-23T01:43:50.853Z,101631.53
2018-11-23T01:44:54.956Z,101629.81
2018-11-23T01:45:58.999Z,101628.50
2018-11-23T01:47:03.063Z,101632.84
2018-11-23T01:48:12.330Z,101630.22
2018-11-23T01:49:16.358Z,101634.62
2018-11-23T01:50:22.587Z,101636.84
2018-11-23T01:51:26.604Z,101632.04
2018-11-23T01:52:30.633Z,101630.81
2018-11-23T01:53:34.716Z,101627.31
2018-11-23T01:54:38.844Z,101634.80
2018-11-23T01:55:43.504Z,101632.17
2018-11-23T01:56:47.627Z,101627.41
2018-11-23T01:57:53.881Z,101623.05
2018-11-23T01:58:58.147Z,101623.05
2018-11-23T02:00:02.189Z,101627.00
2018-11-23T02:01:06.383Z,101625.37
2018-11-23T02:02:10.969Z,101623.11
2018-11-23T02:03:15.134Z,101623.19
2018-11-23T02:04:19.170Z,101616.98
2018-11-23T02:05:23.278Z,101621.02
2018-11-23T02:06:27.280Z,101617.08
2018-11-23T02:07:31.339Z,101618.44
2018-11-23T02:08:35.413Z,101616.67
2018-11-23T02:09:39.459Z,101612.35
2018-11-23T02:10:43.645Z,101617.21
2018-11-23T02:11:47.915Z,101614.13
2018-11-23T02:12:51.960Z,101617.53
2018-11-23T02:13:56.076Z,101615.35
2018-11-23T02:15:00.186Z,101616.22
2018-11-23T02:16:04.261Z,101617.53
2018-11-23T02:17:08.915Z,101622.33
2018-11-23T02:18:13.005Z,101621.47
2018-11-23T02:19:17.092Z,101620.24
2018-11-23T02:20:21.830Z,101618.52
2018-11-23T02:21:25.863Z,101619.38
2018-11-23T02:22:29.889Z,101620.30
2018-11-23T02:23:33.941Z,101621.61
2018-11-23T02:24:38.175Z,101614.62
2018-11-23T02:25:42.241Z,101615.95
2018-11-23T02:26:46.291Z,101616.89
2018-11-23T02:27:50.608Z,101616.40
2018-11-23T02:28:54.821Z,101621.29
2018-11-23T02:29:58.938Z,101623.46
2018-11-23T02:31:08.767Z,101613.91
2018-11-23T02:32:13.087Z,101615.22
2018-11-23T02:33:17.207Z,101616.16
2018-11-23T02:34:21.264Z,101618.80
2018-11-23T02:35:25.412Z,101614.85
2018-11-23T02:36:29.444Z,101619.70
2018-11-23T02:37:33.450Z,101626.73
2018-11-23T02:38:37.592Z,101624.51
2018-11-23T02:39:41.839Z,101617.48
2018-11-23T02:40:45.859Z,101616.53
2018-11-23T02:41:50.042Z,101627.86
2018-11-23T02:42:54.085Z,101625.23
2018-11-23T02:43:58.134Z,101625.15
2018-11-23T02:45:02.136Z,101621.66
2018-11-23T02:46:06.140Z,101622.06
2018-11-23T02:47:10.161Z,101620.30
2018-11-23T02:48:14.269Z,101617.66
2018-11-23T02:49:18.357Z,101608.05
2018-11-23T02:50:22.460Z,101610.69
2018-11-23T02:51:26.559Z,101613.27
2018-11-23T02:52:30.552Z,101612.00
2018-11-23T02:53:34.593Z,101619.44
2018-11-23T02:54:38.624Z,101612.00
2018-11-23T02:55:42.683Z,101608.52
2018-11-23T02:56:47.373Z,101608.14
2018-11-23T02:57:51.435Z,101615.09
2018-11-23T02:58:55.449Z,101610.37
2018-11-23T02:59:59.526Z,101609.50
2018-11-23T03:01:03.534Z,101611.23
2018-11-23T03:02:07.564Z,101604.25
2018-11-23T03:03:11.695Z,101605.65
2018-11-23T03:04:15.737Z,101603.39
2018-11-23T03:05:21.207Z,101603.39
2018-11-23T03:06:25.343Z,101600.77
2018-11-23T03:07:29.480Z,101601.25
2018-11-23T03:08:33.599Z,101601.70
2018-11-23T03:09:37.639Z,101600.44
2018-11-23T03:10:42.445Z,101602.62
2018-11-23T03:11:46.549Z,101607.47
2018-11-23T03:12:50.723Z,101601.84
2018-11-23T03:13:54.870Z,101604.92
2018-11-23T03:14:58.921Z,101608.46
2018-11-23T03:16:03.128Z,101606.29
2018-11-23T03:17:07.469Z,101603.75
2018-11-23T03:18:11.505Z,101607.23
2018-11-23T03:19:15.571Z,101602.94
2018-11-23T03:20:21.128Z,101599.94
2018-11-23T03:21:25.199Z,101599.08
2018-11-23T03:22:29.509Z,101598.63
2018-11-23T03:23:33.546Z,101598.53
2018-11-23T03:24:38.786Z,101593.69
2018-11-23T03:25:42.881Z,101595.86
2018-11-23T03:26:47.010Z,101596.31
2018-11-23T03:27:51.144Z,101594.59
2018-11-23T03:28:58.793Z,101595.00
2018-11-23T03:30:02.846Z,101597.62
2018-11-23T03:31:12.209Z,101592.42
2018-11-23T03:32:10.952Z,101594.14
2018-11-23T03:33:14.945Z,101591.97
2018-11-23T03:34:18.923Z,101595.45
2018-11-23T03:35:23.516Z,101591.51
2018-11-23T03:36:27.598Z,101589.80
2018-11-23T03:37:31.735Z,101589.80
2018-11-23T03:38:35.872Z,101584.53
2018-11-23T03:39:40.191Z,101589.80
2018-11-23T03:40:44.350Z,101587.25
2018-11-23T03:41:48.512Z,101583.81
2018-11-23T03:42:52.629Z,101584.67
2018-11-23T03:43:56.796Z,101585.08
2018-11-23T03:45:00.858Z,101579.87
2018-11-23T03:46:05.188Z,101585.13
2018-11-23T03:47:09.316Z,101584.67
2018-11-23T03:48:13.441Z,101589.06
2018-11-23T03:49:18.437Z,101586.44
2018-11-23T03:50:22.469Z,101586.44
2018-11-23T03:51:26.469Z,101587.75
2018-11-23T03:52:30.537Z,101584.67
2018-11-23T03:53:34.568Z,101586.39
2018-11-23T03:54:38.692Z,101581.98
2018-11-23T03:55:42.768Z,101587.70
2018-11-23T03:56:46.941Z,101585.53
2018-11-23T03:57:50.960Z,101585.53
2018-11-23T03:58:55.001Z,101589.02
2018-11-23T03:59:59.257Z,101594.33
2018-11-23T04:01:03.383Z,101598.76
2018-11-23T04:02:07.441Z,101596.17
2018-11-23T04:03:11.555Z,101601.03
2018-11-23T04:04:15.773Z,101600.17
2018-11-23T04:05:19.949Z,101601.44
2018-11-23T04:06:24.113Z,101598.80
2018-11-23T04:07:28.152Z,101593.55
2018-11-23T04:08:32.236Z,101600.90
2018-11-23T04:09:36.248Z,101593.50
2018-11-23T04:10:40.278Z,101587.84
2018-11-23T04:11:44.337Z,101593.01
2018-11-23T04:12:48.541Z,101594.33
2018-11-23T04:13:52.595Z,101593.41
2018-11-23T04:14:56.737Z,101593.01
2018-11-23T04:16:01.071Z,101593.41
2018-11-23T04:17:05.439Z,101591.70
2018-11-23T04:18:09.519Z,101593.50
2018-11-23T04:19:13.623Z,101590.33
2018-11-23T04:20:18.334Z,101589.47
2018-11-23T04:21:22.404Z,101588.16
2018-11-23T04:22:26.870Z,101589.87
2018-11-23T04:23:32.279Z,101587.25
2018-11-23T04:24:37.045Z,101582.45
2018-11-23T04:25:41.173Z,101577.64
2018-11-23T04:26:45.225Z,101582.45
2018-11-23T04:27:49.354Z,101573.30
2018-11-23T04:28:53.389Z,101578.55
2018-11-23T04:29:57.677Z,101582.50
2018-11-23T04:31:01.713Z,101581.27
2018-11-23T04:32:05.960Z,101587.84
2018-11-23T04:33:09.997Z,101577.78
2018-11-23T04:34:14.077Z,101580.41
2018-11-23T04:35:19.392Z,101577.73
2018-11-23T04:36:23.394Z,101575.09
2018-11-23T04:37:27.417Z,101578.55
2018-11-23T04:38:31.494Z,101581.98
2018-11-23T04:39:35.578Z,101578.95
2018-11-23T04:40:39.618Z,101584.62
2018-11-23T04:41:46.529Z,101582.90
2018-11-23T04:42:47.786Z,101586.84
2018-11-23T04:43:51.856Z,101580.36
2018-11-23T04:44:55.973Z,101582.04
2018-11-23T04:46:00.135Z,101575.92
2018-11-23T04:47:04.149Z,101583.35
2018-11-23T04:48:08.206Z,101589.47
2018-11-23T04:49:12.297Z,101585.08
2018-11-23T04:50:16.697Z,101583.76
2018-11-23T04:51:20.811Z,101585.13
2018-11-23T04:52:24.855Z,101582.98
2018-11-23T04:53:28.967Z,101584.21
2018-11-23T04:54:33.101Z,101578.50
2018-11-23T04:55:37.108Z,101578.50
2018-11-23T04:56:41.221Z,101581.91
2018-11-23T04:57:45.200Z,101578.37
2018-11-23T04:58:49.308Z,101583.57
2018-11-23T04:59:53.529Z,101584.89
2018-11-23T05:00:57.570Z,101580.41
2018-11-23T05:02:01.624Z,101584.61
2018-11-23T05:03:05.716Z,101586.70
2018-11-23T05:04:09.852Z,101587.88
2018-11-23T05:05:14.233Z,101587.38
2018-11-23T05:06:18.289Z,101583.29
2018-11-23T05:07:22.691Z,101588.01
2018-11-23T05:08:26.767Z,101593.98
2018-11-23T05:09:30.794Z,101584.70
2018-11-23T05:10:34.896Z,101588.57
2018-11-23T05:11:39.188Z,101584.08
2018-11-23T05:12:43.253Z,101583.94
2018-11-23T05:13:47.417Z,101580.31
2018-11-23T05:14:51.465Z,101584.12
2018-11-23T05:15:55.493Z,101585.78
2018-11-23T05:16:59.639Z,101579.98
2018-11-23T05:18:03.749Z,101583.38
2018-11-23T05:19:08.061Z,101582.37
2018-11-23T05:20:12.830Z,101577.47
2018-11-23T05:21:16.951Z,101581.27
2018-11-23T05:22:21.025Z,101583.76
2018-11-23T05:23:25.546Z,101581.90
2018-11-23T05:24:29.568Z,101587.96
2018-11-23T05:25:33.684Z,101585.64
2018-11-23T05:26:37.753Z,101581.24
2018-11-23T05:27:41.920Z,101577.66
2018-11-23T05:28:45.975Z,101583.73
2018-11-23T05:29:50.032Z,101582.78
2018-11-23T05:30:54.241Z,101576.69
2018-11-23T05:31:58.435Z,101575.28
2018-11-23T05:33:02.464Z,101568.70
2018-11-23T05:34:06.715Z,101567.39
2018-11-23T05:35:12.735Z,101568.30
2018-11-23T05:36:16.716Z,101559.64
2018-11-23T05:37:20.754Z,101560.55
2018-11-23T05:38:24.791Z,101560.19
2018-11-23T05:39:28.789Z,101559.84
2018-11-23T05:40:33.054Z,101555.98
2018-11-23T05:41:37.198Z,101556.04
2018-11-23T05:42:41.203Z,101559.27
2018-11-23T05:43:45.272Z,101556.27
2018-11-23T05:44:49.306Z,101554.95
2018-11-23T05:45:53.341Z,101554.09
2018-11-23T05:46:57.516Z,101562.05
2018-11-23T05:48:01.517Z,101557.19
2018-11-23T05:49:05.872Z,101559.41
2018-11-23T05:50:13.413Z,101556.41
2018-11-23T05:51:17.417Z,101554.70
2018-11-23T05:52:21.515Z,101552.98
2018-11-23T05:53:25.721Z,101554.75
2018-11-23T05:54:29.824Z,101553.07
2018-11-23T05:55:33.884Z,101547.86
2018-11-23T05:56:37.943Z,101544.06
2018-11-23T05:57:42.523Z,101544.15
2018-11-23T05:58:46.694Z,101540.26
2018-11-23T05:59:50.829Z,101541.72
2018-11-23T06:00:55.201Z,101535.69
2018-11-23T06:01:59.482Z,101531.28
2018-11-23T06:03:03.551Z,101534.42
2018-11-23T06:04:07.641Z,101535.83
2018-11-23T06:05:11.669Z,101529.77
2018-11-23T06:06:15.745Z,101531.53
2018-11-23T06:07:19.798Z,101533.34
2018-11-23T06:08:23.832Z,101537.30
2018-11-23T06:09:27.833Z,101539.98
2018-11-23T06:10:31.913Z,101540.48
2018-11-23T06:11:36.334Z,101540.08
2018-11-23T06:12:40.629Z,101540.53
2018-11-23T06:13:44.686Z,101542.39
2018-11-23T06:14:48.748Z,101548.11
2018-11-23T06:15:52.812Z,101551.19
2018-11-23T06:16:56.835Z,101546.47
2018-11-23T06:18:00.962Z,101545.21
2018-11-23T06:19:05.012Z,101546.13
2018-11-23T06:20:12.016Z,101545.30
2018-11-23T06:21:16.129Z,101549.30
2018-11-23T06:22:20.189Z,101547.12
2018-11-23T06:23:24.411Z,101544.49
2018-11-23T06:24:32.097Z,101545.41
2018-11-23T06:25:38.552Z,101545.41
2018-11-23T06:26:42.547Z,101541.86
2018-11-23T06:27:46.614Z,101540.55
2018-11-23T06:28:50.667Z,101537.92
2018-11-23T06:29:54.688Z,101537.46
2018-11-23T06:30:59.096Z,101533.12
2018-11-23T06:32:03.209Z,101531.80
2018-11-23T06:33:35.642Z,101537.06
2018-11-23T06:34:39.706Z,101534.06
2018-11-23T06:35:43.870Z,101537.15
2018-11-23T06:36:47.927Z,101542.45
2018-11-23T06:37:51.998Z,101550.30
2018-11-23T06:38:56.296Z,101551.61
2018-11-23T06:40:00.391Z,101547.72
2018-11-23T06:41:10.122Z,101548.66
2018-11-23T06:42:08.757Z,101549.98
2018-11-23T06:43:12.915Z,101554.75
2018-11-23T06:44:21.169Z,101551.39
2018-11-23T06:45:25.327Z,101562.77
2018-11-23T06:46:29.402Z,101569.34
2018-11-23T06:47:33.552Z,101566.72
2018-11-23T06:48:37.604Z,101565.94
2018-11-23T06:49:43.734Z,101560.28
2018-11-23T06:50:47.825Z,101563.72
2018-11-23T06:51:51.882Z,101566.48
2018-11-23T06:52:55.956Z,101562.00
2018-11-23T06:53:59.993Z,101555.42
2018-11-23T06:55:04.115Z,101556.74
2018-11-23T06:56:08.352Z,101558.05
2018-11-23T06:57:12.427Z,101559.37
2018-11-23T06:58:16.593Z,101558.05
2018-11-23T06:59:20.679Z,101554.11
2018-11-23T07:00:31.679Z,101554.11
2018-11-23T07:01:35.674Z,101551.89
2018-11-23T07:02:39.916Z,101554.11
2018-11-23T07:03:43.955Z,101557.97
2018-11-23T07:04:47.992Z,101558.05
2018-11-23T07:05:52.132Z,101559.91
2018-11-23T07:06:56.217Z,101560.82
2018-11-23T07:08:00.530Z,101564.77
2018-11-23T07:09:07.187Z,101562.59
2018-11-23T07:10:11.629Z,101559.11
2018-11-23T07:11:15.790Z,101563.05
2018-11-23T07:12:19.977Z,101564.77
2018-11-23T07:13:24.139Z,101569.16
2018-11-23T07:14:28.353Z,101572.66
2018-11-23T07:15:32.360Z,101573.97
2018-11-23T07:16:36.531Z,101570.88
2018-11-23T07:17:41.401Z,101574.38
2018-11-23T07:18:45.569Z,101573.06
2018-11-23T07:19:49.570Z,101575.20
2018-11-23T07:20:53.894Z,101579.14
2018-11-23T07:21:57.704Z,101577.38
2018-11-23T07:23:02.010Z,101577.00
2018-11-23T07:24:06.270Z,101576.91
2018-11-23T07:25:11.856Z,101576.46
2018-11-23T07:26:15.954Z,101575.14
2018-11-23T07:27:20.287Z,101568.97
2018-11-23T07:28:24.390Z,101571.52
2018-11-23T07:29:28.503Z,101564.48
2018-11-23T07:30:32.654Z,101566.20
2018-11-23T07:31:37.036Z,101562.27
2018-11-23T07:32:41.195Z,101567.89
2018-11-23T07:33:45.236Z,101570.02
2018-11-23T07:34:49.306Z,101570.02
2018-11-23T07:35:53.749Z,101573.02
2018-11-23T07:36:57.904Z,101574.82
2018-11-23T07:38:01.934Z,101576.13
2018-11-23T07:39:07.522Z,101573.02
2018-11-23T07:40:24.660Z,101574.28
2018-11-23T07:41:40.165Z,101575.19
2018-11-23T07:42:44.230Z,101568.16
2018-11-23T07:43:48.525Z,101563.76
2018-11-23T07:44:52.613Z,101562.90
2018-11-23T07:45:56.669Z,101566.34
2018-11-23T07:47:00.753Z,101560.13
2018-11-23T07:48:05.058Z,101565.34
2018-11-23T07:49:09.147Z,101563.08
2018-11-23T07:50:13.184Z,101563.48
2018-11-23T07:51:17.328Z,101566.92
2018-11-23T07:52:21.423Z,101564.74
2018-11-23T07:53:25.637Z,101573.95
2018-11-23T07:54:29.714Z,101572.63
2018-11-23T07:55:33.737Z,101572.17
2018-11-23T07:56:38.223Z,101578.34
2018-11-23T07:57:42.030Z,101570.38
2018-11-23T07:58:46.272Z,101573.35
2018-11-23T07:59:50.389Z,101571.09
2018-11-23T08:00:54.449Z,101567.53
2018-11-23T08:01:58.525Z,101568.84
2018-11-23T08:03:02.556Z,101571.80
2018-11-23T08:04:06.627Z,101572.51
2018-11-23T08:05:12.422Z,101570.25
2018-11-23T08:06:16.639Z,101567.97
2018-11-23T08:07:21.156Z,101570.05
2018-11-23T08:08:24.646Z,101576.94
2018-11-23T08:09:28.675Z,101569.45
2018-11-23T08:10:31.906Z,101566.73
2018-11-23T08:11:36.011Z,101571.95
2018-11-23T08:12:41.364Z,101571.09
2018-11-23T08:13:45.499Z,101565.36
2018-11-23T08:14:49.554Z,101563.14
2018-11-23T08:15:53.653Z,101563.51
2018-11-23T08:16:57.708Z,101560.36
2018-11-23T08:18:01.769Z,101562.05
2018-11-23T08:19:05.893Z,101557.64
2018-11-23T08:20:11.964Z,101563.31
2018-11-23T08:21:16.061Z,101569.43
2018-11-23T08:22:20.225Z,101565.84
2018-11-23T08:23:24.331Z,101572.83
2018-11-23T08:24:28.500Z,101567.97
2018-11-23T08:25:32.568Z,101568.73
2018-11-23T08:26:36.768Z,101560.33
2018-11-23T08:27:41.355Z,101559.02
2018-11-23T08:28:45.366Z,101559.78
2018-11-23T08:29:49.415Z,101556.24
2018-11-23T08:30:53.930Z,101555.30
2018-11-23T08:31:58.152Z,101553.52
2018-11-23T08:33:02.236Z,101554.78
2018-11-23T08:34:06.304Z,101553.83
2018-11-23T08:35:10.735Z,101552.46
2018-11-23T08:36:15.055Z,101555.95
2018-11-23T08:37:19.133Z,101553.31
2018-11-23T08:38:23.178Z,101559.35
2018-11-23T08:39:27.267Z,101558.44
2018-11-23T08:40:31.329Z,101561.06
2018-11-23T08:41:35.419Z,101563.55
2018-11-23T08:42:39.769Z,101560.92
2018-11-23T08:43:43.963Z,101563.95
2018-11-23T08:44:48.683Z,101561.32
2018-11-23T08:45:52.797Z,101563.50
2018-11-23T08:46:56.801Z,101571.76
2018-11-23T08:48:00.888Z,101556.83
2018-11-23T08:49:04.970Z,101563.81
2018-11-23T08:50:11.393Z,101565.48
2018-11-23T08:51:15.517Z,101564.58
2018-11-23T08:52:19.613Z,101568.47
2018-11-23T08:53:32.413Z,101566.69
2018-11-23T08:54:37.582Z,101567.06
2018-11-23T08:55:41.662Z,101566.55
2018-11-23T08:56:45.805Z,101565.59
2018-11-23T08:57:49.881Z,101564.68
2018-11-23T08:58:53.961Z,101565.08
2018-11-23T08:59:58.076Z,101561.50
2018-11-23T09:01:02.148Z,101564.13
2018-11-23T09:02:06.217Z,101571.42
2018-11-23T09:03:10.257Z,101570.51
2018-11-23T09:04:14.373Z,101567.82
2018-11-23T09:05:18.719Z,101562.92
2018-11-23T09:06:22.776Z,101558.52
2018-11-23T09:07:26.838Z,101555.81
2018-11-23T09:08:30.787Z,101560.53
2018-11-23T09:09:34.817Z,101557.91
2018-11-23T09:10:38.972Z,101559.07
2018-11-23T09:11:43.025Z,101566.91
2018-11-23T09:12:49.069Z,101565.05
2018-11-23T09:13:53.170Z,101561.95
2018-11-23T09:14:57.273Z,101561.03
2018-11-23T09:16:01.372Z,101563.58
2018-11-23T09:17:05.853Z,101566.98
2018-11-23T09:18:09.977Z,101566.98
2018-11-23T09:19:14.157Z,101566.46
2018-11-23T09:20:19.183Z,101567.69
2018-11-23T09:21:23.214Z,101562.81
2018-11-23T09:22:27.305Z,101561.44
2018-11-23T09:23:31.431Z,101562.76
2018-11-23T09:24:35.468Z,101559.17
2018-11-23T09:25:39.527Z,101560.43
2018-11-23T09:26:43.562Z,101554.24
2018-11-23T09:27:47.567Z,101560.28
2018-11-23T09:28:51.682Z,101556.33
2018-11-23T09:29:55.741Z,101559.27
2018-11-23T09:30:59.761Z,101552.22
2018-11-23T09:32:04.137Z,101546.89
2018-11-23T09:33:08.126Z,101543.70
2018-11-23T09:34:12.301Z,101550.20
2018-11-23T09:35:16.425Z,101546.64
2018-11-23T09:36:20.553Z,101546.64
2018-11-23T09:37:24.585Z,101542.63
2018-11-23T09:38:28.755Z,101545.17
2018-11-23T09:39:33.485Z,101543.80
2018-11-23T09:40:37.624Z,101548.45
2018-11-23T09:41:41.803Z,101550.53
2018-11-23T09:42:45.782Z,101548.66
2018-11-23T09:43:49.820Z,101544.19
2018-11-23T09:44:53.834Z,101547.58
2018-11-23T09:45:57.844Z,101544.42
2018-11-23T09:47:01.890Z,101543.87
2018-11-23T09:48:06.705Z,101546.91
2018-11-23T09:49:10.800Z,101541.08
2018-11-23T09:50:16.247Z,101546.75
2018-11-23T09:51:20.304Z,101545.80
2018-11-23T09:52:24.324Z,101539.14
2018-11-23T09:53:28.365Z,101539.59
2018-11-23T09:54:32.480Z,101540.92
2018-11-23T09:55:37.494Z,101539.05
2018-11-23T09:56:41.566Z,101530.61
2018-11-23T09:57:45.671Z,101530.06
2018-11-23T09:58:49.991Z,101527.36
2018-11-23T09:59:54.081Z,101524.16
2018-11-23T10:00:58.117Z,101528.05
2018-11-23T10:02:02.197Z,101522.22
2018-11-23T10:03:07.010Z,101519.98
2018-11-23T10:04:11.030Z,101526.02
2018-11-23T10:05:15.706Z,101524.54
2018-11-23T10:06:19.824Z,101515.70
2018-11-23T10:07:24.197Z,101526.55
2018-11-23T10:08:28.261Z,101521.58
2018-11-23T10:09:32.338Z,101519.73
2018-11-23T10:10:36.425Z,101524.38
2018-11-23T10:11:40.748Z,101518.95
2018-11-23T10:12:44.869Z,101522.28
2018-11-23T10:13:48.920Z,101516.44
2018-11-23T10:14:52.815Z,101517.07
2018-11-23T10:16:02.369Z,101514.63
2018-11-23T10:17:06.075Z,101511.83
2018-11-23T10:18:09.851Z,101509.88
2018-11-23T10:19:19.320Z,101503.22
2018-11-23T10:20:24.389Z,101508.39
2018-11-23T10:21:33.866Z,101506.08
2018-11-23T10:22:43.351Z,101500.70
2018-11-23T10:23:52.917Z,101498.00
2018-11-23T10:24:56.678Z,101507.06
2018-11-23T10:26:00.413Z,101506.50
2018-11-23T10:27:04.217Z,101506.73
2018-11-23T10:28:08.456Z,101510.05
2018-11-23T10:29:12.226Z,101502.43
2018-11-23T10:30:17.946Z,101496.98
2018-11-23T10:31:21.696Z,101499.84
2018-11-23T10:32:26.000Z,101496.64
2018-11-23T10:33:29.779Z,101495.55
2018-11-23T10:34:33.528Z,101492.34
2018-11-23T10:35:37.354Z,101493.12
2018-11-23T10:36:41.317Z,101496.45
2018-11-23T10:37:52.107Z,101501.09
2018-11-23T10:38:55.945Z,101506.66
2018-11-23T10:39:59.749Z,101498.17
2018-11-23T10:41:03.470Z,101505.95
2018-11-23T10:42:07.209Z,101497.03
2018-11-23T10:43:11.165Z,101499.86
2018-11-23T10:44:15.020Z,101498.94
2018-11-23T10:45:20.740Z,101490.38
2018-11-23T10:46:24.512Z,101490.66
2018-11-23T10:47:28.304Z,101484.73
2018-11-23T10:48:32.187Z,101477.48
2018-11-23T10:49:35.913Z,101478.63
2018-11-23T10:50:41.206Z,101475.81
2018-11-23T10:51:46.085Z,101474.31
2018-11-23T10:52:49.997Z,101478.95
2018-11-23T10:53:53.826Z,101474.34
2018-11-23T10:54:57.605Z,101474.16
2018-11-23T10:56:01.408Z,101469.09
2018-11-23T10:57:06.409Z,101463.63
2018-11-23T10:58:10.198Z,101458.55
2018-11-23T10:59:14.050Z,101459.69
2018-11-23T11:00:24.262Z,101462.89
2018-11-23T11:01:33.306Z,101464.81
2018-11-23T11:02:43.099Z,101460.55
2018-11-23T11:03:52.225Z,101462.66
2018-11-23T11:05:07.050Z,101458.97
2018-11-23T11:06:16.639Z,101455.56
2018-11-23T11:07:20.353Z,101455.88
2018-11-23T11:08:24.169Z,101448.11
2018-11-23T11:09:27.959Z,101445.39
2018-11-23T11:10:37.401Z,101442.56
2018-11-23T11:11:41.916Z,101436.16
2018-11-23T11:12:45.805Z,101435.96
2018-11-23T11:13:49.760Z,101430.48
2018-11-23T11:14:59.081Z,101435.50
2018-11-23T11:16:02.897Z,101436.52
2018-11-23T11:17:07.860Z,101434.08
2018-11-23T11:18:11.679Z,101433.30
2018-11-23T11:19:21.154Z,101429.91
2018-11-23T11:20:24.989Z,101436.14
2018-11-23T11:21:28.860Z,101418.36
2018-11-23T11:22:32.612Z,101426.41
2018-11-23T11:23:36.393Z,101428.75
2018-11-23T11:24:40.562Z,101429.80
2018-11-23T11:25:44.340Z,101424.30
2018-11-23T11:26:48.169Z,101420.99
2018-11-23T11:27:57.704Z,101429.20
2018-11-23T11:29:01.490Z,101424.65
2018-11-23T11:30:07.569Z,101416.55
2018-11-23T11:31:11.315Z,101425.50
2018-11-23T11:32:15.057Z,101420.47
2018-11-23T11:33:18.964Z,101422.92
2018-11-23T11:34:29.541Z,101417.54
2018-11-23T11:35:33.321Z,101421.43
2018-11-23T11:36:37.128Z,101415.08
2018-11-23T11:37:41.423Z,101411.95
2018-11-23T11:38:46.262Z,101411.45
2018-11-23T11:39:48.990Z,101407.98
2018-11-23T11:40:52.984Z,101408.92
2018-11-23T11:41:56.745Z,101402.77
2018-11-23T11:43:00.513Z,101399.74
2018-11-23T11:44:04.378Z,101402.03
2018-11-23T11:45:09.959Z,101407.80
2018-11-23T11:46:13.731Z,101399.47
2018-11-23T11:47:17.479Z,101397.77
2018-11-23T11:48:21.258Z,101395.62
2018-11-23T11:49:25.090Z,101398.73
2018-11-23T11:50:34.421Z,101403.17
2018-11-23T11:55:11.953Z,101396.03
2018-11-23T11:56:15.733Z,101394.52
2018-11-23T11:57:19.491Z,101392.42
2018-11-23T11:58:23.388Z,101387.72
2018-11-23T11:59:27.143Z,101390.36
2018-11-23T12:00:30.900Z,101387.25
2018-11-23T12:01:34.676Z,101393.02
2018-11-23T12:02:38.454Z,101386.01
2018-11-23T12:03:42.219Z,101382.54
2018-11-23T12:04:45.995Z,101383.95
2018-11-23T12:05:49.888Z,101379.03
2018-11-23T12:06:53.665Z,101373.36
2018-11-23T12:07:57.506Z,101372.62
2018-11-23T12:09:01.330Z,101369.59
2018-11-23T12:10:06.710Z,101364.30
2018-11-23T12:11:10.639Z,101359.09
2018-11-23T12:12:14.346Z,101359.94
2018-11-23T12:13:18.273Z,101356.55
2018-11-23T12:14:22.081Z,101355.23
2018-11-23T12:15:25.838Z,101357.41
2018-11-23T12:16:29.725Z,101352.58
2018-11-23T12:17:33.579Z,101353.80
2018-11-23T12:18:37.376Z,101353.33
2018-11-23T12:19:41.170Z,101350.20